sensor_id;sensor_type;location;lat;lon;timestamp;pressure;altitude;pressure_sealevel;temperature;humidity
51452;BME280;37521;52.020;-1.740;2024-01-15T00:00:20;99404.28;;;-0.40;100.00
51452;BME280;37521;52.020;-1.740;2024-01-15T00:02:49;99406.88;;;-0.42;100.00
51452;BME280;37521;52.020;-1.740;2024-01-15T00:05:18;99406.00;;;-0.39;100.00
51452;BME280;37521;52.020;-1.740;2024-01-15T00:07:47;99408.59;;;-0.38;100.00
51452;BME280;37521;52.020;-1.740;2024-01-15T00:10:17;99397.34;;;-0.38;100.00
51452;BME280;37521;52.020;-1.740;2024-01-15T00:12:46;99399.09;;;-0.40;100.00
51452;BME280;37521;52.020;-1.740;2024-01-15T00:15:15;99389.56;;;-0.38;100.00
51452;BME280;37521;52.020;-1.740;2024-01-15T00:17:44;99386.97;;;-0.38;100.00
51452;BME280;37521;52.020;-1.740;2024-01-15T00:20:13;99396.50;;;-0.40;100.00
51452;BME280;37521;52.020;-1.740;2024-01-15T00:22:42;99393.94;;;-0.43;100.00
51452;BME280;37521;52.020;-1.740;2024-01-15T00:25:11;99388.75;;;-0.43;100.00
51452;BME280;37521;52.020;-1.740;2024-01-15T00:27:41;99394.78;;;-0.41;100.00
51452;BME280;37521;52.020;-1.740;2024-01-15T00:30:11;99376.63;;;-0.41;100.00
51452;BME280;37521;52.020;-1.740;2024-01-15T00:32:40;99381.81;;;-0.41;100.00
51452;BME280;37521;52.020;-1.740;2024-01-15T00:35:09;99376.63;;;-0.41;100.00
51452;BME280;37521;52.020;-1.740;2024-01-15T00:37:38;99366.25;;;-0.41;100.00
51452;BME280;37521;52.020;-1.740;2024-01-15T00:40:07;99370.56;;;-0.40;100.00
51452;BME280;37521;52.020;-1.740;2024-01-15T00:42:36;99367.09;;;-0.38;100.00
51452;BME280;37521;52.020;-1.740;2024-01-15T00:45:07;99361.03;;;-0.38;100.00
51452;BME280;37521;52.020;-1.740;2024-01-15T00:47:36;99361.03;;;-0.38;100.00
51452;BME280;37521;52.020;-1.740;2024-01-15T00:50:05;99359.34;;;-0.39;100.00
51452;BME280;37521;52.020;-1.740;2024-01-15T00:52:35;99356.72;;;-0.39;100.00
51452;BME280;37521;52.020;-1.740;2024-01-15T00:55:05;99351.53;;;-0.38;100.00
51452;BME280;37521;52.020;-1.740;2024-01-15T00:57:34;99344.59;;;-0.37;100.00
51452;BME280;37521;52.020;-1.740;2024-01-15T01:00:04;99340.31;;;-0.40;100.00
51452;BME280;37521;52.020;-1.740;2024-01-15T01:02:35;99342.03;;;-0.40;100.00
51452;BME280;37521;52.020;-1.740;2024-01-15T01:05:04;99345.47;;;-0.38;100.00
51452;BME280;37521;52.020;-1.740;2024-01-15T01:07:33;99326.47;;;-0.40;100.00
51452;BME280;37521;52.020;-1.740;2024-01-15T01:10:02;99330.78;;;-0.41;100.00
51452;BME280;37521;52.020;-1.740;2024-01-15T01:12:31;99328.22;;;-0.42;100.00
51452;BME280;37521;52.020;-1.740;2024-01-15T01:15:00;99330.00;;;-0.44;100.00
51452;BME280;37521;52.020;-1.740;2024-01-15T01:17:29;99336.06;;;-0.47;100.00
51452;BME280;37521;52.020;-1.740;2024-01-15T01:20:00;99336.94;;;-0.48;100.00
51452;BME280;37521;52.020;-1.740;2024-01-15T01:22:32;99338.66;;;-0.45;100.00
51452;BME280;37521;52.020;-1.740;2024-01-15T01:25:00;99338.66;;;-0.45;100.00
51452;BME280;37521;52.020;-1.740;2024-01-15T01:27:29;99334.34;;;-0.46;100.00
51452;BME280;37521;52.020;-1.740;2024-01-15T01:29:58;99326.59;;;-0.49;100.00
51452;BME280;37521;52.020;-1.740;2024-01-15T01:32:28;99333.53;;;-0.51;100.00
51452;BME280;37521;52.020;-1.740;2024-01-15T01:34:57;99329.22;;;-0.54;100.00
51452;BME280;37521;52.020;-1.740;2024-01-15T01:37:27;99335.34;;;-0.58;100.00
51452;BME280;37521;52.020;-1.740;2024-01-15T01:39:56;99333.75;;;-0.67;100.00
51452;BME280;37521;52.020;-1.740;2024-01-15T01:42:25;99346.75;;;-0.74;100.00
51452;BME280;37521;52.020;-1.740;2024-01-15T01:44:54;99340.00;;;-0.86;100.00
51452;BME280;37521;52.020;-1.740;2024-01-15T01:47:23;99339.25;;;-0.97;100.00
51452;BME280;37521;52.020;-1.740;2024-01-15T01:49:54;99338.50;;;-1.10;100.00
51452;BME280;37521;52.020;-1.740;2024-01-15T01:52:23;99335.97;;;-1.15;100.00
51452;BME280;37521;52.020;-1.740;2024-01-15T01:54:54;99334.28;;;-1.19;100.00
51452;BME280;37521;52.020;-1.740;2024-01-15T01:57:23;99331.75;;;-1.23;100.00
51452;BME280;37521;52.020;-1.740;2024-01-15T01:59:52;99330.03;;;-1.24;100.00
51452;BME280;37521;52.020;-1.740;2024-01-15T02:02:22;99330.81;;;-1.18;100.00
51452;BME280;37521;52.020;-1.740;2024-01-15T02:04:51;99320.47;;;-1.18;100.00
51452;BME280;37521;52.020;-1.740;2024-01-15T02:07:20;99320.47;;;-1.18;100.00
51452;BME280;37521;52.020;-1.740;2024-01-15T02:09:50;99318.72;;;-1.16;100.00
51452;BME280;37521;52.020;-1.740;2024-01-15T02:12:20;99310.97;;;-1.17;100.00
51452;BME280;37521;52.020;-1.740;2024-01-15T02:14:49;99319.56;;;-1.15;100.00
51452;BME280;37521;52.020;-1.740;2024-01-15T02:17:18;99317.84;;;-1.13;100.00
51452;BME280;37521;52.020;-1.740;2024-01-15T02:19:46;99318.66;;;-1.10;100.00
51452;BME280;37521;52.020;-1.740;2024-01-15T02:22:15;99319.50;;;-1.06;100.00
51452;BME280;37521;52.020;-1.740;2024-01-15T02:24:46;99322.00;;;-1.01;100.00
51452;BME280;37521;52.020;-1.740;2024-01-15T02:27:15;99320.28;;;-0.99;100.00
51452;BME280;37521;52.020;-1.740;2024-01-15T02:29:44;99322.81;;;-0.93;100.00
51452;BME280;37521;52.020;-1.740;2024-01-15T02:32:13;99318.47;;;-0.91;100.00
51452;BME280;37521;52.020;-1.740;2024-01-15T02:34:42;99325.31;;;-0.86;100.00
51452;BME280;37521;52.020;-1.740;2024-01-15T02:37:10;99327.03;;;-0.85;100.00
51452;BME280;37521;52.020;-1.740;2024-01-15T02:39:39;99323.56;;;-0.85;100.00
51452;BME280;37521;52.020;-1.740;2024-01-15T02:42:09;99326.19;;;-0.87;100.00
51452;BME280;37521;52.020;-1.740;2024-01-15T02:44:38;99333.06;;;-0.84;100.00
51452;BME280;37521;52.020;-1.740;2024-01-15T02:47:07;99332.19;;;-0.83;100.00
51452;BME280;37521;52.020;-1.740;2024-01-15T02:49:36;99330.47;;;-0.84;100.00
51452;BME280;37521;52.020;-1.740;2024-01-15T02:52:05;99330.41;;;-0.81;100.00
51452;BME280;37521;52.020;-1.740;2024-01-15T02:54:34;99326.97;;;-0.80;100.00
51452;BME280;37521;52.020;-1.740;2024-01-15T02:57:03;99314.84;;;-0.78;100.00
51452;BME280;37521;52.020;-1.740;2024-01-15T02:59:33;99313.09;;;-0.76;100.00
51452;BME280;37521;52.020;-1.740;2024-01-15T03:02:02;99306.16;;;-0.74;100.00
51452;BME280;37521;52.020;-1.740;2024-01-15T03:04:31;99308.72;;;-0.74;100.00
51452;BME280;37521;52.020;-1.740;2024-01-15T03:07:00;99307.91;;;-0.76;100.00
51452;BME280;37521;52.020;-1.740;2024-01-15T03:09:28;99311.41;;;-0.78;100.00
51452;BME280;37521;52.020;-1.740;2024-01-15T03:11:57;99314.91;;;-0.83;100.00
51452;BME280;37521;52.020;-1.740;2024-01-15T03:14:26;99314.91;;;-0.84;100.00
51452;BME280;37521;52.020;-1.740;2024-01-15T03:16:56;99330.47;;;-0.87;100.00
51452;BME280;37521;52.020;-1.740;2024-01-15T03:19:25;99331.41;;;-0.91;100.00
51452;BME280;37521;52.020;-1.740;2024-01-15T03:21:54;99328.00;;;-0.93;100.00
51452;BME280;37521;52.020;-1.740;2024-01-15T03:24:23;99325.41;;;-0.93;100.00
51452;BME280;37521;52.020;-1.740;2024-01-15T03:26:52;99329.78;;;-1.01;100.00
51452;BME280;37521;52.020;-1.740;2024-01-15T03:29:21;99324.72;;;-1.12;100.00
51452;BME280;37521;52.020;-1.740;2024-01-15T03:31:50;99320.53;;;-1.24;100.00
51452;BME280;37521;52.020;-1.740;2024-01-15T03:34:20;99323.19;;;-1.34;100.00
51452;BME280;37521;52.020;-1.740;2024-01-15T03:36:49;99323.28;;;-1.42;100.00
51452;BME280;37521;52.020;-1.740;2024-01-15T03:39:18;99325.97;;;-1.51;100.00
51452;BME280;37521;52.020;-1.740;2024-01-15T03:41:47;99329.47;;;-1.61;100.00
51452;BME280;37521;52.020;-1.740;2024-01-15T03:44:15;99327.84;;;-1.72;100.00
51452;BME280;37521;52.020;-1.740;2024-01-15T03:46:44;99339.13;;;-1.79;100.00
51452;BME280;37521;52.020;-1.740;2024-01-15T03:49:13;99332.22;;;-1.81;100.00
51452;BME280;37521;52.020;-1.740;2024-01-15T03:51:43;99333.06;;;-1.81;100.00
51452;BME280;37521;52.020;-1.740;2024-01-15T03:54:12;99336.56;;;-1.85;100.00
51452;BME280;37521;52.020;-1.740;2024-01-15T03:56:45;99329.72;;;-1.92;100.00
51452;BME280;37521;52.020;-1.740;2024-01-15T03:59:13;99329.72;;;-1.95;100.00
51452;BME280;37521;52.020;-1.740;2024-01-15T04:01:48;99320.28;;;-1.99;100.00
51452;BME280;37521;52.020;-1.740;2024-01-15T04:04:18;99317.75;;;-2.05;100.00
51452;BME280;37521;52.020;-1.740;2024-01-15T04:06:48;99322.91;;;-2.08;100.00
51452;BME280;37521;52.020;-1.740;2024-01-15T04:09:17;99322.97;;;-2.14;100.00
51452;BME280;37521;52.020;-1.740;2024-01-15T04:11:46;99324.69;;;-2.16;100.00
51452;BME280;37521;52.020;-1.740;2024-01-15T04:14:14;99333.31;;;-2.13;100.00
51452;BME280;37521;52.020;-1.740;2024-01-15T04:16:43;99326.44;;;-2.17;100.00
51452;BME280;37521;52.020;-1.740;2024-01-15T04:19:12;99333.34;;;-2.17;100.00
51452;BME280;37521;52.020;-1.740;2024-01-15T04:21:41;99333.34;;;-2.17;100.00
51452;BME280;37521;52.020;-1.740;2024-01-15T04:24:11;99327.28;;;-2.15;100.00
51452;BME280;37521;52.020;-1.740;2024-01-15T04:26:40;99331.59;;;-2.12;100.00
51452;BME280;37521;52.020;-1.740;2024-01-15T04:29:09;99325.56;;;-2.16;100.00
51452;BME280;37521;52.020;-1.740;2024-01-15T04:31:37;99332.47;;;-2.18;100.00
51452;BME280;37521;52.020;-1.740;2024-01-15T04:34:06;99331.63;;;-2.22;100.00
51452;BME280;37521;52.020;-1.740;2024-01-15T04:36:38;99329.94;;;-2.26;100.00
51452;BME280;37521;52.020;-1.740;2024-01-15T04:39:07;99333.41;;;-2.31;100.00
51452;BME280;37521;52.020;-1.740;2024-01-15T04:41:38;99337.75;;;-2.33;100.00
51452;BME280;37521;52.020;-1.740;2024-01-15T04:44:06;99338.59;;;-2.36;100.00
51452;BME280;37521;52.020;-1.740;2024-01-15T04:46:35;99328.28;;;-2.39;100.00
51452;BME280;37521;52.020;-1.740;2024-01-15T04:49:04;99332.59;;;-2.39;100.00
51452;BME280;37521;52.020;-1.740;2024-01-15T04:51:33;99331.75;;;-2.40;100.00
51452;BME280;37521;52.020;-1.740;2024-01-15T04:54:02;99324.81;;;-2.41;100.00
51452;BME280;37521;52.020;-1.740;2024-01-15T04:56:31;99340.34;;;-2.41;100.00
51452;BME280;37521;52.020;-1.740;2024-01-15T04:59:01;99329.16;;;-2.43;100.00
51452;BME280;37521;52.020;-1.740;2024-01-15T05:01:31;99326.59;;;-2.46;100.00
51452;BME280;37521;52.020;-1.740;2024-01-15T05:04:00;99328.31;;;-2.45;100.00
51452;BME280;37521;52.020;-1.740;2024-01-15T05:06:29;99341.25;;;-2.45;100.00
51452;BME280;37521;52.020;-1.740;2024-01-15T05:08:58;99331.78;;;-2.49;100.00
51452;BME280;37521;52.020;-1.740;2024-01-15T05:11:27;99335.25;;;-2.56;100.00
51452;BME280;37521;52.020;-1.740;2024-01-15T05:13:56;99330.13;;;-2.65;100.00
51452;BME280;37521;52.020;-1.740;2024-01-15T05:16:26;99323.25;;;-2.66;100.00
51452;BME280;37521;52.020;-1.740;2024-01-15T05:18:55;99324.09;;;-2.66;100.00
51452;BME280;37521;52.020;-1.740;2024-01-15T05:21:24;99323.25;;;-2.69;100.00
51452;BME280;37521;52.020;-1.740;2024-01-15T05:23:53;99316.38;;;-2.73;100.00
51452;BME280;37521;52.020;-1.740;2024-01-15T05:26:21;99321.56;;;-2.78;100.00
51452;BME280;37521;52.020;-1.740;2024-01-15T05:28:50;99321.56;;;-2.80;100.00
51452;BME280;37521;52.020;-1.740;2024-01-15T05:31:19;99321.56;;;-2.80;100.00
51452;BME280;37521;52.020;-1.740;2024-01-15T05:33:49;99319.81;;;-2.71;100.00
51452;BME280;37521;52.020;-1.740;2024-01-15T05:36:18;99324.97;;;-2.75;100.00
51452;BME280;37521;52.020;-1.740;2024-01-15T05:38:47;99320.69;;;-2.76;100.00
51452;BME280;37521;52.020;-1.740;2024-01-15T05:41:17;99325.00;;;-2.78;100.00
51452;BME280;37521;52.020;-1.740;2024-01-15T05:43:45;99320.72;;;-2.85;100.00
51452;BME280;37521;52.020;-1.740;2024-01-15T05:46:14;99331.94;;;-2.86;100.00
51452;BME280;37521;52.020;-1.740;2024-01-15T05:48:43;99329.38;;;-2.93;100.00
51452;BME280;37521;52.020;-1.740;2024-01-15T05:51:13;99320.78;;;-2.98;100.00
51452;BME280;37521;52.020;-1.740;2024-01-15T05:53:42;99321.63;;;-2.98;100.00
51452;BME280;37521;52.020;-1.740;2024-01-15T05:56:12;99321.59;;;-2.95;100.00
51452;BME280;37521;52.020;-1.740;2024-01-15T05:58:40;99317.31;;;-2.96;100.00
51452;BME280;37521;52.020;-1.740;2024-01-15T06:01:10;99309.56;;;-2.96;100.00
51452;BME280;37521;52.020;-1.740;2024-01-15T06:03:38;99307.00;;;-2.99;100.00
51452;BME280;37521;52.020;-1.740;2024-01-15T06:06:08;99313.03;;;-3.00;100.00
51452;BME280;37521;52.020;-1.740;2024-01-15T06:08:39;99310.47;;;-3.05;100.00
51452;BME280;37521;52.020;-1.740;2024-01-15T06:11:08;99312.19;;;-3.07;100.00
51452;BME280;37521;52.020;-1.740;2024-01-15T06:13:36;99306.16;;;-3.04;100.00
51452;BME280;37521;52.020;-1.740;2024-01-15T06:16:13;99319.94;;;-3.05;100.00
51452;BME280;37521;52.020;-1.740;2024-01-15T06:18:42;99315.63;;;-3.08;100.00
51452;BME280;37521;52.020;-1.740;2024-01-15T06:21:11;99312.19;;;-3.11;100.00
51452;BME280;37521;52.020;-1.740;2024-01-15T06:23:43;99312.19;;;-3.11;100.00
51452;BME280;37521;52.020;-1.740;2024-01-15T06:26:12;99320.81;;;-3.12;100.00
51452;BME280;37521;52.020;-1.740;2024-01-15T06:28:41;99309.63;;;-3.14;100.00
51452;BME280;37521;52.020;-1.740;2024-01-15T06:31:09;99317.38;;;-3.13;100.00
51452;BME280;37521;52.020;-1.740;2024-01-15T06:33:38;99305.34;;;-3.14;100.00
51452;BME280;37521;52.020;-1.740;2024-01-15T06:36:08;99301.03;;;-3.13;100.00
51452;BME280;37521;52.020;-1.740;2024-01-15T06:38:38;99298.44;;;-3.13;100.00
51452;BME280;37521;52.020;-1.740;2024-01-15T06:41:08;99310.50;;;-3.20;100.00
51452;BME280;37521;52.020;-1.740;2024-01-15T06:43:37;99314.81;;;-3.20;100.00
51452;BME280;37521;52.020;-1.740;2024-01-15T06:46:06;99318.22;;;-3.21;100.00
51452;BME280;37521;52.020;-1.740;2024-01-15T06:48:35;99320.81;;;-3.18;100.00
51452;BME280;37521;52.020;-1.740;2024-01-15T06:51:04;99319.97;;;-3.20;100.00
51452;BME280;37521;52.020;-1.740;2024-01-15T06:53:33;99313.94;;;-3.18;100.00
51452;BME280;37521;52.020;-1.740;2024-01-15T06:56:02;99323.41;;;-3.12;100.00
51452;BME280;37521;52.020;-1.740;2024-01-15T06:58:32;99317.38;;;-3.13;100.00
51452;BME280;37521;52.020;-1.740;2024-01-15T07:01:01;99319.06;;;-3.06;100.00
51452;BME280;37521;52.020;-1.740;2024-01-15T07:03:30;99322.50;;;-3.04;100.00
51452;BME280;37521;52.020;-1.740;2024-01-15T07:05:59;99325.09;;;-3.05;100.00
51452;BME280;37521;52.020;-1.740;2024-01-15T07:08:28;99324.25;;;-3.07;100.00
51452;BME280;37521;52.020;-1.740;2024-01-15T07:10:57;99329.41;;;-3.12;100.00
51452;BME280;37521;52.020;-1.740;2024-01-15T07:13:26;99338.00;;;-3.10;100.00
51452;BME280;37521;52.020;-1.740;2024-01-15T07:15:56;99344.91;;;-3.15;100.00
51452;BME280;37521;52.020;-1.740;2024-01-15T07:18:25;99349.22;;;-3.20;100.00
51452;BME280;37521;52.020;-1.740;2024-01-15T07:20:54;99355.25;;;-3.18;100.00
51452;BME280;37521;52.020;-1.740;2024-01-15T07:23:22;99358.66;;;-3.08;100.00
51452;BME280;37521;52.020;-1.740;2024-01-15T07:25:54;99356.94;;;-3.03;100.00
51452;BME280;37521;52.020;-1.740;2024-01-15T07:28:23;99358.63;;;-2.96;100.00
51452;BME280;37521;52.020;-1.740;2024-01-15T07:30:51;99356.06;;;-2.87;100.00
51452;BME280;37521;52.020;-1.740;2024-01-15T07:33:21;99359.47;;;-2.79;100.00
51452;BME280;37521;52.020;-1.740;2024-01-15T07:35:51;99354.25;;;-2.71;100.00
51452;BME280;37521;52.020;-1.740;2024-01-15T07:38:19;99355.97;;;-2.68;100.00
51452;BME280;37521;52.020;-1.740;2024-01-15T07:40:48;99353.38;;;-2.64;100.00
51452;BME280;37521;52.020;-1.740;2024-01-15T07:43:17;99360.25;;;-2.58;100.00
51452;BME280;37521;52.020;-1.740;2024-01-15T07:45:46;99374.00;;;-2.50;100.00
51452;BME280;37521;52.020;-1.740;2024-01-15T07:48:15;99374.84;;;-2.43;100.00
51452;BME280;37521;52.020;-1.740;2024-01-15T07:50:45;99376.53;;;-2.38;100.00
51452;BME280;37521;52.020;-1.740;2024-01-15T07:53:14;99383.41;;;-2.31;100.00
51452;BME280;37521;52.020;-1.740;2024-01-15T07:55:42;99395.47;;;-2.27;100.00
51452;BME280;37521;52.020;-1.740;2024-01-15T07:58:13;99393.72;;;-2.28;100.00
51452;BME280;37521;52.020;-1.740;2024-01-15T08:00:43;99393.72;;;-2.25;100.00
51452;BME280;37521;52.020;-1.740;2024-01-15T08:03:12;99397.16;;;-2.26;100.00
51452;BME280;37521;52.020;-1.740;2024-01-15T08:05:42;99409.25;;;-2.26;100.00
51452;BME280;37521;52.020;-1.740;2024-01-15T08:08:12;99417.84;;;-2.29;100.00
51452;BME280;37521;52.020;-1.740;2024-01-15T08:10:41;99421.31;;;-2.30;100.00
51452;BME280;37521;52.020;-1.740;2024-01-15T08:13:10;99411.00;;;-2.33;100.00
51452;BME280;37521;52.020;-1.740;2024-01-15T08:15:39;99407.53;;;-2.32;100.00
51452;BME280;37521;52.020;-1.740;2024-01-15T08:18:07;99411.00;;;-2.36;100.00
51452;BME280;37521;52.020;-1.740;2024-01-15T08:20:36;99423.06;;;-2.38;100.00
51452;BME280;37521;52.020;-1.740;2024-01-15T08:23:05;99423.94;;;-2.37;100.00
51452;BME280;37521;52.020;-1.740;2024-01-15T08:25:35;99425.63;;;-2.35;100.00
51452;BME280;37521;52.020;-1.740;2024-01-15T08:28:04;99414.44;;;-2.35;100.00
51452;BME280;37521;52.020;-1.740;2024-01-15T08:30:33;99416.16;;;-2.36;100.00
51452;BME280;37521;52.020;-1.740;2024-01-15T08:33:02;99423.91;;;-2.33;100.00
51452;BME280;37521;52.020;-1.740;2024-01-15T08:35:44;99431.66;;;-2.30;100.00
51452;BME280;37521;52.020;-1.740;2024-01-15T08:38:13;99432.50;;;-2.26;100.00
51452;BME280;37521;52.020;-1.740;2024-01-15T08:40:43;99431.63;;;-2.24;100.00
51452;BME280;37521;52.020;-1.740;2024-01-15T08:43:12;99440.25;;;-2.20;100.00
51452;BME280;37521;52.020;-1.740;2024-01-15T08:45:40;99437.66;;;-2.18;100.00
51452;BME280;37521;52.020;-1.740;2024-01-15T08:48:09;99439.38;;;-2.17;100.00
51452;BME280;37521;52.020;-1.740;2024-01-15T08:50:38;99445.41;;;-2.14;100.00
51452;BME280;37521;52.020;-1.740;2024-01-15T08:53:07;99441.94;;;-2.11;100.00
51452;BME280;37521;52.020;-1.740;2024-01-15T08:55:35;99441.94;;;-2.11;100.00
51452;BME280;37521;52.020;-1.740;2024-01-15T08:58:06;99452.28;;;-2.11;100.00
51452;BME280;37521;52.020;-1.740;2024-01-15T09:00:34;99446.25;;;-2.13;100.00
51452;BME280;37521;52.020;-1.740;2024-01-15T09:03:04;99452.28;;;-2.17;100.00
51452;BME280;37521;52.020;-1.740;2024-01-15T09:05:33;99450.56;;;-2.22;100.00
51452;BME280;37521;52.020;-1.740;2024-01-15T09:08:02;99454.91;;;-2.25;100.00
51452;BME280;37521;52.020;-1.740;2024-01-15T09:10:31;99459.22;;;-2.30;100.00
51452;BME280;37521;52.020;-1.740;2024-01-15T09:13:00;99452.34;;;-2.31;100.00
51452;BME280;37521;52.020;-1.740;2024-01-15T09:15:32;99457.50;;;-2.30;100.00
51452;BME280;37521;52.020;-1.740;2024-01-15T09:18:01;99458.34;;;-2.23;100.00
51452;BME280;37521;52.020;-1.740;2024-01-15T09:20:34;99459.16;;;-2.15;100.00
51452;BME280;37521;52.020;-1.740;2024-01-15T09:23:03;99467.78;;;-2.10;100.00
51452;BME280;37521;52.020;-1.740;2024-01-15T09:25:31;99485.00;;;-2.07;100.00
51452;BME280;37521;52.020;-1.740;2024-01-15T09:28:00;99486.72;;;-2.03;100.00
51452;BME280;37521;52.020;-1.740;2024-01-15T09:30:30;99490.16;;;-2.01;100.00
51452;BME280;37521;52.020;-1.740;2024-01-15T09:33:00;99489.28;;;-1.96;100.00
51452;BME280;37521;52.020;-1.740;2024-01-15T09:35:29;99489.25;;;-1.91;100.00
51452;BME280;37521;52.020;-1.740;2024-01-15T09:37:58;99497.84;;;-1.83;100.00
51452;BME280;37521;52.020;-1.740;2024-01-15T09:40:31;99495.19;;;-1.71;100.00
51452;BME280;37521;52.020;-1.740;2024-01-15T09:43:01;99508.91;;;-1.56;100.00
51452;BME280;37521;52.020;-1.740;2024-01-15T09:45:31;99514.91;;;-1.48;100.00
51452;BME280;37521;52.020;-1.740;2024-01-15T09:48:01;99515.75;;;-1.43;100.00
51452;BME280;37521;52.020;-1.740;2024-01-15T09:50:30;99515.72;;;-1.37;100.00
51452;BME280;37521;52.020;-1.740;2024-01-15T09:53:00;99522.63;;;-1.33;100.00
51452;BME280;37521;52.020;-1.740;2024-01-15T09:55:29;99520.00;;;-1.34;100.00
51452;BME280;37521;52.020;-1.740;2024-01-15T09:58:00;99522.63;;;-1.36;100.00
51452;BME280;37521;52.020;-1.740;2024-01-15T10:00:30;99523.50;;;-1.39;100.00
51452;BME280;37521;52.020;-1.740;2024-01-15T10:03:01;99527.81;;;-1.42;100.00
51452;BME280;37521;52.020;-1.740;2024-01-15T10:05:31;99522.69;;;-1.45;100.00
51452;BME280;37521;52.020;-1.740;2024-01-15T10:08:01;99514.06;;;-1.49;100.00
51452;BME280;37521;52.020;-1.740;2024-01-15T10:10:31;99508.91;;;-1.50;100.00
51452;BME280;37521;52.020;-1.740;2024-01-15T10:13:00;99505.44;;;-1.49;100.00
51452;BME280;37521;52.020;-1.740;2024-01-15T10:15:29;99511.41;;;-1.41;100.00
51452;BME280;37521;52.020;-1.740;2024-01-15T10:17:57;99514.88;;;-1.38;100.00
51452;BME280;37521;52.020;-1.740;2024-01-15T10:20:28;99513.97;;;-1.32;100.00
51452;BME280;37521;52.020;-1.740;2024-01-15T10:22:57;99512.22;;;-1.27;100.00
51452;BME280;37521;52.020;-1.740;2024-01-15T10:25:26;99507.84;;;-1.20;100.00
51452;BME280;37521;52.020;-1.740;2024-01-15T10:27:59;99514.69;;;-1.15;100.00
51452;BME280;37521;52.020;-1.740;2024-01-15T10:30:29;99516.38;;;-1.09;100.00
51452;BME280;37521;52.020;-1.740;2024-01-15T10:32:58;99522.47;;;-1.12;100.00
51452;BME280;37521;52.020;-1.740;2024-01-15T10:35:31;99525.94;;;-1.13;100.00
51452;BME280;37521;52.020;-1.740;2024-01-15T10:38:00;99525.97;;;-1.19;100.00
51452;BME280;37521;52.020;-1.740;2024-01-15T10:40:29;99538.03;;;-1.18;100.00
51452;BME280;37521;52.020;-1.740;2024-01-15T10:42:58;99535.44;;;-1.13;100.00
51452;BME280;37521;52.020;-1.740;2024-01-15T10:45:27;99550.97;;;-1.15;100.00
51452;BME280;37521;52.020;-1.740;2024-01-15T10:47:56;99542.31;;;-1.11;100.00
51452;BME280;37521;52.020;-1.740;2024-01-15T10:50:27;99541.44;;;-1.06;100.00
51452;BME280;37521;52.020;-1.740;2024-01-15T10:52:59;99544.03;;;-1.06;100.00
51452;BME280;37521;52.020;-1.740;2024-01-15T10:55:29;99531.94;;;-1.06;100.00
51452;BME280;37521;52.020;-1.740;2024-01-15T10:57:59;99531.88;;;-1.01;100.00
51452;BME280;37521;52.020;-1.740;2024-01-15T11:00:28;99529.31;;;-1.03;100.00
51452;BME280;37521;52.020;-1.740;2024-01-15T11:02:57;99531.94;;;-1.09;100.00
51452;BME280;37521;52.020;-1.740;2024-01-15T11:05:29;99527.63;;;-1.10;100.00
51452;BME280;37521;52.020;-1.740;2024-01-15T11:08:01;99531.84;;;-0.97;100.00
51452;BME280;37521;52.020;-1.740;2024-01-15T11:10:40;99539.66;;;-1.01;100.00
51452;BME280;37521;52.020;-1.740;2024-01-15T11:13:10;99535.31;;;-0.96;100.00
51452;BME280;37521;52.020;-1.740;2024-01-15T11:16:00;99541.22;;;-0.82;100.00
51452;BME280;37521;52.020;-1.740;2024-01-15T11:18:31;99547.13;;;-0.60;100.00
51452;BME280;37521;52.020;-1.740;2024-01-15T11:21:21;99549.50;;;-0.37;100.00
51452;BME280;37521;52.020;-1.740;2024-01-15T11:23:54;99552.84;;;-0.26;100.00
51452;BME280;37521;52.020;-1.740;2024-01-15T11:26:34;99549.38;;;-0.25;100.00
51452;BME280;37521;52.020;-1.740;2024-01-15T11:29:04;99550.53;;;-0.53;100.00
51452;BME280;37521;52.020;-1.740;2024-01-15T11:31:58;99554.19;;;-0.79;100.00
51452;BME280;37521;52.020;-1.740;2024-01-15T11:34:54;99551.69;;;-0.91;100.00
51452;BME280;37521;52.020;-1.740;2024-01-15T11:37:27;99543.09;;;-0.99;100.00
51452;BME280;37521;52.020;-1.740;2024-01-15T11:40:02;99544.84;;;-1.01;100.00
51452;BME280;37521;52.020;-1.740;2024-01-15T11:42:32;99543.97;;;-0.99;100.00
51452;BME280;37521;52.020;-1.740;2024-01-15T11:45:02;99548.28;;;-0.99;100.00
51452;BME280;37521;52.020;-1.740;2024-01-15T11:48:04;99546.53;;;-1.00;100.00
51452;BME280;37521;52.020;-1.740;2024-01-15T11:50:40;99549.19;;;-1.03;100.00
51452;BME280;37521;52.020;-1.740;2024-01-15T11:53:27;99554.38;;;-1.05;100.00
51452;BME280;37521;52.020;-1.740;2024-01-15T11:56:03;99553.53;;;-1.08;100.00
51452;BME280;37521;52.020;-1.740;2024-01-15T11:58:35;99558.69;;;-1.08;100.00
51452;BME280;37521;52.020;-1.740;2024-01-15T12:01:04;99555.25;;;-1.09;100.00
51452;BME280;37521;52.020;-1.740;2024-01-15T12:03:33;99556.97;;;-1.05;100.00
51452;BME280;37521;52.020;-1.740;2024-01-15T12:06:05;99557.78;;;-1.01;100.00
51452;BME280;37521;52.020;-1.740;2024-01-15T12:08:34;99556.91;;;-1.00;100.00
51452;BME280;37521;52.020;-1.740;2024-01-15T12:11:07;99560.38;;;-0.98;100.00
51452;BME280;37521;52.020;-1.740;2024-01-15T12:13:39;99566.41;;;-0.98;100.00
51452;BME280;37521;52.020;-1.740;2024-01-15T12:16:08;99562.09;;;-0.97;100.00
51452;BME280;37521;52.020;-1.740;2024-01-15T12:18:37;99562.06;;;-0.91;100.00
51452;BME280;37521;52.020;-1.740;2024-01-15T12:21:06;99555.13;;;-0.89;100.00
51452;BME280;37521;52.020;-1.740;2024-01-15T12:23:35;99556.84;;;-0.88;100.00
51452;BME280;37521;52.020;-1.740;2024-01-15T12:26:05;99551.69;;;-0.91;100.00
51452;BME280;37521;52.020;-1.740;2024-01-15T12:28:34;99549.09;;;-0.91;100.00
51452;BME280;37521;52.020;-1.740;2024-01-15T12:31:06;99555.09;;;-0.86;100.00
51452;BME280;37521;52.020;-1.740;2024-01-15T12:33:35;99549.00;;;-0.82;100.00
51452;BME280;37521;52.020;-1.740;2024-01-15T12:36:05;99550.75;;;-0.79;100.00
51452;BME280;37521;52.020;-1.740;2024-01-15T12:38:34;99548.97;;;-0.77;100.00
51452;BME280;37521;52.020;-1.740;2024-01-15T12:41:03;99550.69;;;-0.75;100.00
51452;BME280;37521;52.020;-1.740;2024-01-15T12:43:35;99555.88;;;-0.73;100.00
51452;BME280;37521;52.020;-1.740;2024-01-15T12:46:03;99551.56;;;-0.73;100.00
51452;BME280;37521;52.020;-1.740;2024-01-15T12:48:32;99548.97;;;-0.73;100.00
51452;BME280;37521;52.020;-1.740;2024-01-15T12:51:05;99548.94;;;-0.71;100.00
51452;BME280;37521;52.020;-1.740;2024-01-15T12:53:34;99548.03;;;-0.69;100.00